createdAt,value
2018-04-14T12:53:53.844Z,992.84
2018-04-14T12:54:53.734Z,992.84
2018-04-14T12:56:46.583Z,992.93
2018-04-14T12:57:46.507Z,992.94
2018-04-14T12:59:39.335Z,992.93
2018-04-14T13:00:39.167Z,992.93
2018-04-14T13:02:32.424Z,993.02
2018-04-14T13:03:32.335Z,993.00
2018-04-14T13:05:25.161Z,993.11
2018-04-14T13:06:25.623Z,993.10
2018-04-14T13:08:17.909Z,993.11
2018-04-14T13:09:17.793Z,993.09
2018-04-14T13:11:10.665Z,993.00
2018-04-14T13:12:10.535Z,993.07
2018-04-14T13:14:03.418Z,992.97
2018-04-14T13:15:03.289Z,993.00
2018-04-14T13:16:56.167Z,993.06
2018-04-14T13:17:56.064Z,992.93
2018-04-14T13:19:48.929Z,992.97
2018-04-14T13:20:48.840Z,992.94
2018-04-14T13:22:41.653Z,993.00
2018-04-14T13:23:41.631Z,992.96
2018-04-14T13:25:34.409Z,993.08
2018-04-14T13:26:34.281Z,993.02
2018-04-14T13:28:27.129Z,992.99
2018-04-14T13:29:27.044Z,993.01
2018-04-14T13:31:19.926Z,993.07
2018-04-14T13:32:19.823Z,992.96
2018-04-14T13:34:12.681Z,992.97
2018-04-14T13:35:12.531Z,992.99
2018-04-14T13:37:05.833Z,993.04
2018-04-14T13:38:05.720Z,993.01
2018-04-14T13:39:58.678Z,993.05
2018-04-14T13:40:58.566Z,993.15
2018-04-14T13:42:51.491Z,993.07
2018-04-14T13:43:51.402Z,993.06
2018-04-14T13:45:44.296Z,992.99
2018-04-14T13:46:44.167Z,993.01
2018-04-14T13:48:36.996Z,992.96
2018-04-14T13:49:36.896Z,993.06
2018-04-14T13:51:29.749Z,993.08
2018-04-14T13:52:29.644Z,993.14
2018-04-14T13:54:22.610Z,993.11
2018-04-14T13:55:22.543Z,993.14
2018-04-14T13:57:15.472Z,993.14
2018-04-14T13:58:15.383Z,993.05
2018-04-14T14:00:08.226Z,993.05
2018-04-14T14:01:08.105Z,993.04
2018-04-14T14:03:00.992Z,992.96
2018-04-14T14:04:00.861Z,992.97
2018-04-14T14:05:54.394Z,993.00
2018-04-14T14:06:53.614Z,992.95
2018-04-14T14:08:46.631Z,992.99
2018-04-14T14:09:46.951Z,993.03
2018-04-14T14:11:39.224Z,993.07
2018-04-14T14:12:39.100Z,993.04
2018-04-14T14:14:31.974Z,993.11
2018-04-14T14:15:31.895Z,993.02
2018-04-14T14:17:24.693Z,993.06
2018-04-14T14:18:24.619Z,992.98
2018-04-14T14:20:18.526Z,992.99
2018-04-14T14:21:17.517Z,993.04
2018-04-14T14:23:10.601Z,993.08
2018-04-14T14:24:10.538Z,993.08
2018-04-14T14:26:03.382Z,993.02
2018-04-14T14:27:03.268Z,993.02
2018-04-14T14:28:56.133Z,992.98
2018-04-14T14:29:56.012Z,992.97
2018-04-14T14:31:50.038Z,992.98
2018-04-14T14:32:49.444Z,992.98
2018-04-14T14:34:41.617Z,993.00
2018-04-14T14:35:41.528Z,993.03
2018-04-14T14:37:34.365Z,993.01
2018-04-14T14:38:34.262Z,992.99
2018-04-14T14:40:27.366Z,992.99
2018-04-14T14:41:27.243Z,993.01
2018-04-14T14:43:20.871Z,993.03
2018-04-14T14:44:21.331Z,993.05
2018-04-14T14:46:12.947Z,993.08
2018-04-14T14:47:12.833Z,993.07
2018-04-14T14:49:05.667Z,993.05
2018-04-14T14:50:05.571Z,993.11
2018-04-14T14:51:58.619Z,993.03
2018-04-14T14:52:58.521Z,993.01
2018-04-14T14:54:51.515Z,993.03
2018-04-14T14:55:51.426Z,993.03
2018-04-14T14:57:44.130Z,993.02
2018-04-14T14:58:44.014Z,993.01
2018-04-14T15:00:36.851Z,993.04
2018-04-14T15:01:36.803Z,993.03
2018-04-14T15:03:31.167Z,993.03
2018-04-14T15:04:31.130Z,993.03
2018-04-14T15:06:25.305Z,993.06
2018-04-14T15:07:24.343Z,993.11
2018-04-14T15:09:16.674Z,993.08
2018-04-14T15:10:16.579Z,993.07
2018-04-14T15:12:09.430Z,993.05
2018-04-14T15:13:09.308Z,993.03
2018-04-14T15:15:02.999Z,993.05
2018-04-14T15:16:02.885Z,993.09
2018-04-14T15:17:56.319Z,993.09
2018-04-14T15:18:56.258Z,993.16
2018-04-14T15:20:49.769Z,993.09
2018-04-14T15:21:49.673Z,993.05
2018-04-14T15:23:42.372Z,993.07
2018-04-14T15:24:42.237Z,993.09
2018-04-14T15:26:35.105Z,993.12
2018-04-14T15:27:34.995Z,993.10
2018-04-14T15:29:28.278Z,993.03
2018-04-14T15:30:28.159Z,993.08
2018-04-14T15:32:21.515Z,993.04
2018-04-14T15:33:21.485Z,993.07
2018-04-14T15:35:14.283Z,993.05
2018-04-14T15:36:14.168Z,993.09
2018-04-14T15:38:07.037Z,993.07
2018-04-14T15:39:06.911Z,993.05
2018-04-14T15:40:59.781Z,993.07
2018-04-14T15:41:59.659Z,993.00
2018-04-14T15:43:52.944Z,992.94
2018-04-14T15:44:52.514Z,992.97
2018-04-14T15:46:45.409Z,992.97
2018-04-14T15:47:45.264Z,992.96
2018-04-14T15:49:38.129Z,992.97
2018-04-14T15:50:38.007Z,993.01
2018-04-14T15:52:30.892Z,992.96
2018-04-14T15:53:30.763Z,992.99
2018-04-14T15:55:23.602Z,992.99
2018-04-14T15:56:23.522Z,992.99
2018-04-14T15:58:16.353Z,993.09
2018-04-14T15:59:16.278Z,993.11
2018-04-14T16:01:09.113Z,993.02
2018-04-14T16:02:09.012Z,993.07
2018-04-14T16:04:09.657Z,993.06
2018-04-14T16:05:01.758Z,993.03
2018-04-14T16:06:54.640Z,993.00
2018-04-14T16:07:54.514Z,992.97
2018-04-14T16:09:47.359Z,992.94
2018-04-14T16:10:47.277Z,992.92
2018-04-14T16:12:40.517Z,992.90
2018-04-14T16:13:40.443Z,992.86
2018-04-14T16:15:33.271Z,992.81
2018-04-14T16:16:33.181Z,992.85
2018-04-14T16:18:26.007Z,992.86
2018-04-14T16:19:25.927Z,992.82
2018-04-14T16:21:18.786Z,992.83
2018-04-14T16:22:18.669Z,992.80
2018-04-14T16:24:11.510Z,992.86
2018-04-14T16:25:11.425Z,992.86
2018-04-14T16:27:04.268Z,992.87
2018-04-14T16:28:04.190Z,992.85
2018-04-14T16:29:57.010Z,992.84
2018-04-14T16:30:56.941Z,992.82
2018-04-14T16:32:49.770Z,992.80
2018-04-14T16:33:49.672Z,992.79
2018-04-14T16:35:42.507Z,992.73
2018-04-14T16:36:42.411Z,992.74
2018-04-14T16:38:35.284Z,992.75
2018-04-14T16:39:35.170Z,992.75
2018-04-14T16:41:28.008Z,992.79
2018-04-14T16:42:27.937Z,992.79
2018-04-14T16:44:21.972Z,992.82
2018-04-14T16:45:20.657Z,992.82
2018-04-14T16:47:13.524Z,992.78
2018-04-14T16:48:13.416Z,992.78
2018-04-14T16:50:06.748Z,992.79
2018-04-14T16:51:06.583Z,992.80
2018-04-14T16:52:59.466Z,992.85
2018-04-14T16:53:59.329Z,992.80
2018-04-14T16:55:52.698Z,992.81
2018-04-14T16:56:52.302Z,992.79
2018-04-14T16:58:44.929Z,992.79
2018-04-14T16:59:44.828Z,992.81
2018-04-14T17:01:37.662Z,992.80
2018-04-14T17:02:37.593Z,992.78
2018-04-14T17:04:30.439Z,992.82
2018-04-14T17:05:30.317Z,992.80
2018-04-14T17:07:23.177Z,992.84
2018-04-14T17:08:23.081Z,992.85
2018-04-14T17:10:15.949Z,992.86
2018-04-14T17:11:15.822Z,992.85
2018-04-14T17:13:08.664Z,992.85
2018-04-14T17:14:08.563Z,992.91
2018-04-14T17:16:02.332Z,992.94
2018-04-14T17:17:01.320Z,992.95
2018-04-14T17:18:54.240Z,992.93
2018-04-14T17:19:54.106Z,992.97
2018-04-14T17:21:46.924Z,992.96
2018-04-14T17:22:46.810Z,992.97
2018-04-14T17:24:39.685Z,992.98
2018-04-14T17:25:39.561Z,992.98
2018-04-14T17:27:32.410Z,992.99
2018-04-14T17:28:32.338Z,992.98
2018-04-14T17:30:25.154Z,993.02
2018-04-14T17:31:25.061Z,993.04
2018-04-14T17:33:17.952Z,993.11
2018-04-14T17:34:17.821Z,993.13
2018-04-14T17:36:10.687Z,993.16
2018-04-14T17:37:10.555Z,993.18
2018-04-14T17:39:03.411Z,993.13
2018-04-14T17:40:03.311Z,993.14
2018-04-14T17:41:56.159Z,993.23
2018-04-14T17:42:56.287Z,993.19
2018-04-14T17:44:48.970Z,993.22
2018-04-14T17:45:48.819Z,993.19
2018-04-14T17:47:41.676Z,993.22
2018-04-14T17:48:41.616Z,993.22
2018-04-14T17:50:34.427Z,993.23
2018-04-14T17:51:34.304Z,993.25
2018-04-14T17:53:27.158Z,993.30
2018-04-14T17:54:27.062Z,993.34
2018-04-14T17:56:19.965Z,993.30
2018-04-14T17:57:19.824Z,993.36
2018-04-14T17:59:12.688Z,993.40
2018-04-14T18:00:12.570Z,993.37
2018-04-14T18:02:05.322Z,993.38
2018-04-14T18:03:05.210Z,993.36
2018-04-14T18:04:58.468Z,993.42
2018-04-14T18:05:58.363Z,993.41
2018-04-14T18:07:51.234Z,993.43
2018-04-14T18:08:51.111Z,993.44
2018-04-14T18:10:43.957Z,993.47
2018-04-14T18:11:43.867Z,993.48
2018-04-14T18:13:36.716Z,993.48
2018-04-14T18:14:36.629Z,993.49
2018-04-14T18:16:29.975Z,993.52
2018-04-14T18:17:29.775Z,993.55
2018-04-14T18:19:24.075Z,993.57
2018-04-14T18:20:23.981Z,993.62
2018-04-14T18:22:17.725Z,993.61
2018-04-14T18:23:17.641Z,993.64
2018-04-14T18:25:10.482Z,993.62
2018-04-14T18:26:10.416Z,993.65
2018-04-14T18:28:03.266Z,993.68
2018-04-14T18:29:03.126Z,993.73
2018-04-14T18:30:56.001Z,993.79
2018-04-14T18:31:55.898Z,993.81
2018-04-14T18:33:48.717Z,993.82
2018-04-14T18:34:48.619Z,993.82
2018-04-14T18:36:41.931Z,993.85
2018-04-14T18:37:41.786Z,993.89
2018-04-14T18:39:34.683Z,993.95
2018-04-14T18:40:34.532Z,993.96
2018-04-14T18:42:27.288Z,994.04
2018-04-14T18:43:27.183Z,994.05
2018-04-14T18:45:20.017Z,994.05
2018-04-14T18:46:19.972Z,994.05
2018-04-14T18:48:12.689Z,994.07
2018-04-14T18:49:12.579Z,994.08
2018-04-14T18:51:05.316Z,994.05
2018-04-14T18:52:05.240Z,994.07
2018-04-14T18:53:58.731Z,994.05
2018-04-14T18:54:58.588Z,994.11
2018-04-14T18:56:51.445Z,994.10
2018-04-14T18:57:51.343Z,994.14
2018-04-14T18:59:44.092Z,994.10
2018-04-14T19:00:43.988Z,994.09
2018-04-14T19:02:36.840Z,994.09
2018-04-14T19:03:36.636Z,994.08
2018-04-14T19:05:29.489Z,994.09
2018-04-14T19:06:29.392Z,994.09
2018-04-14T19:08:22.119Z,994.12
2018-04-14T19:09:22.029Z,994.15
2018-04-14T19:11:14.788Z,994.19
2018-04-14T19:12:14.674Z,994.20
2018-04-14T19:14:07.413Z,994.24
2018-04-14T19:15:07.337Z,994.21
2018-04-14T19:17:00.170Z,994.27
2018-04-14T19:18:00.077Z,994.25
2018-04-14T19:19:52.841Z,994.27
2018-04-14T19:20:52.728Z,994.28
2018-04-14T19:22:45.598Z,994.24
2018-04-14T19:23:45.490Z,994.23
2018-04-14T19:25:38.241Z,994.24
2018-04-14T19:26:38.119Z,994.26
2018-04-14T19:28:30.894Z,994.26
2018-04-14T19:29:30.760Z,994.24
2018-04-14T19:31:24.031Z,994.19
2018-04-14T19:32:23.940Z,994.22
2018-04-14T19:34:17.214Z,994.24
2018-04-14T19:35:17.079Z,994.21
2018-04-14T19:37:09.924Z,994.23
2018-04-14T19:38:09.839Z,994.18
2018-04-14T19:40:02.696Z,994.20
2018-04-14T19:41:02.585Z,994.18
2018-04-14T19:42:56.337Z,994.17
2018-04-14T19:43:55.338Z,994.11
2018-04-14T19:45:48.216Z,994.08
2018-04-14T19:46:48.076Z,994.09
2018-04-14T19:48:42.562Z,994.10
2018-04-14T19:49:42.479Z,994.09
2018-04-14T19:51:35.263Z,994.07
2018-04-14T19:52:35.145Z,994.05
2018-04-14T19:54:27.878Z,994.03
2018-04-14T19:55:27.764Z,994.06
2018-04-14T19:57:20.649Z,994.03
2018-04-14T19:58:20.430Z,994.05
2018-04-14T20:00:13.260Z,994.03
2018-04-14T20:01:13.157Z,994.07
2018-04-14T20:03:05.928Z,994.08
2018-04-14T20:04:05.824Z,994.07
2018-04-14T20:05:58.652Z,994.04
2018-04-14T20:06:58.612Z,994.10
2018-04-14T20:08:51.320Z,994.04
2018-04-14T20:09:51.200Z,994.09
2018-04-14T20:11:43.955Z,994.10
2018-04-14T20:12:43.872Z,994.10
2018-04-14T20:14:36.719Z,994.14
2018-04-14T20:15:38.306Z,994.12
2018-04-14T20:17:29.484Z,994.08
2018-04-14T20:18:29.262Z,994.11
2018-04-14T20:20:22.095Z,994.08
2018-04-14T20:21:21.988Z,994.08
2018-04-14T20:23:14.742Z,994.05
2018-04-14T20:24:14.650Z,994.04
2018-04-14T20:26:07.386Z,994.05
2018-04-14T20:27:07.292Z,994.05
2018-04-14T20:29:01.305Z,994.00
2018-04-14T20:30:01.465Z,994.01
2018-04-14T20:31:52.826Z,993.98
2018-04-14T20:32:52.697Z,993.98
2018-04-14T20:34:45.567Z,993.97
2018-04-14T20:35:45.442Z,993.99
2018-04-14T20:37:38.202Z,993.96
2018-04-14T20:38:38.092Z,993.97
2018-04-14T20:40:30.937Z,993.95
2018-04-14T20:41:30.862Z,993.98
2018-04-14T20:43:23.715Z,994.01
2018-04-14T20:44:23.493Z,994.04
2018-04-14T20:46:16.331Z,993.97
2018-04-14T20:47:16.133Z,993.96
2018-04-14T20:49:08.990Z,993.80
2018-04-14T20:50:08.898Z,993.80
2018-04-14T20:52:01.734Z,993.86
2018-04-14T20:53:01.645Z,993.86
2018-04-14T20:54:54.498Z,993.84
2018-04-14T20:55:54.372Z,993.84
2018-04-14T20:57:47.125Z,993.87
2018-04-14T20:58:47.026Z,993.84
2018-04-14T21:00:40.300Z,993.87
2018-04-14T21:01:40.190Z,993.85
2018-04-14T21:03:33.028Z,993.84
2018-04-14T21:04:32.931Z,993.84
2018-04-14T21:06:25.698Z,993.81
2018-04-14T21:07:25.584Z,993.82
2018-04-14T21:09:18.349Z,993.86
2018-04-14T21:10:18.226Z,993.87
2018-04-14T21:12:11.583Z,993.92
2018-04-14T21:13:10.867Z,993.85
2018-04-14T21:15:04.149Z,993.81
2018-04-14T21:16:04.052Z,993.79
2018-04-14T21:17:57.297Z,993.73
2018-04-14T21:18:57.263Z,993.74
2018-04-14T21:20:50.040Z,993.71
2018-04-14T21:21:49.936Z,993.72
2018-04-14T21:23:42.820Z,993.75
2018-04-14T21:24:42.708Z,993.73
2018-04-14T21:26:35.612Z,993.78
2018-04-14T21:27:35.343Z,993.82
2018-04-14T21:29:28.078Z,993.85
2018-04-14T21:30:28.002Z,993.88
2018-04-14T21:32:20.809Z,993.79
2018-04-14T21:33:20.628Z,993.80
2018-04-14T21:35:13.390Z,993.79
2018-04-14T21:36:13.301Z,993.80
2018-04-14T21:38:06.054Z,993.80
2018-04-14T21:39:05.927Z,993.80
2018-04-14T21:40:58.689Z,993.81
2018-04-14T21:41:58.588Z,993.81
2018-04-14T21:43:51.441Z,993.83
2018-04-14T21:44:51.322Z,993.82
2018-04-14T21:46:44.065Z,993.78
2018-04-14T21:47:43.970Z,993.77
2018-04-14T21:49:36.730Z,993.73
2018-04-14T21:50:36.623Z,993.76
2018-04-14T21:52:29.460Z,993.72
2018-04-14T21:53:29.366Z,993.72
2018-04-14T21:55:22.155Z,993.72
2018-04-14T21:56:22.017Z,993.71
2018-04-14T21:58:14.785Z,993.68
2018-04-14T21:59:14.653Z,993.74
2018-04-14T22:01:07.416Z,993.71
2018-04-14T22:02:07.359Z,993.67
2018-04-14T22:04:00.070Z,993.66
2018-04-14T22:04:59.950Z,993.62
2018-04-14T22:06:52.944Z,993.58
2018-04-14T22:07:52.856Z,993.54
2018-04-14T22:09:45.648Z,993.50
2018-04-14T22:10:45.554Z,993.53
2018-04-14T22:12:38.458Z,993.52
2018-04-14T22:13:38.301Z,993.50
2018-04-14T22:15:31.659Z,993.48
2018-04-14T22:16:30.951Z,993.50
2018-04-14T22:18:23.737Z,993.52
2018-04-14T22:19:23.601Z,993.55
2018-04-14T22:21:16.455Z,993.56
2018-04-14T22:22:16.245Z,993.58
2018-04-14T22:24:09.025Z,993.58
2018-04-14T22:25:08.900Z,993.58
2018-04-14T22:27:03.165Z,993.55
2018-04-14T22:28:03.078Z,993.55
2018-04-14T22:29:55.834Z,993.56
2018-04-14T22:30:55.772Z,993.54
2018-04-14T22:32:48.477Z,993.46
2018-04-14T22:33:48.375Z,993.43
2018-04-14T22:35:41.121Z,993.40
2018-04-14T22:36:41.017Z,993.39
2018-04-14T22:38:33.862Z,993.44
2018-04-14T22:39:33.766Z,993.45
2018-04-14T22:41:26.533Z,993.45
2018-04-14T22:42:26.431Z,993.45
2018-04-14T22:44:21.847Z,993.43
2018-04-14T22:45:20.595Z,993.42
2018-04-14T22:47:13.353Z,993.34
2018-04-14T22:48:13.267Z,993.33
2018-04-14T22:50:06.017Z,993.34
2018-04-14T22:51:05.901Z,993.30
2018-04-14T22:52:58.765Z,993.27
2018-04-14T22:53:58.645Z,993.26
2018-04-14T22:55:51.392Z,993.29
2018-04-14T22:56:51.295Z,993.28
2018-04-14T22:58:44.044Z,993.30
2018-04-14T22:59:43.932Z,993.29
2018-04-14T23:01:36.703Z,993.29
2018-04-14T23:02:36.582Z,993.26
2018-04-14T23:04:29.422Z,993.22
2018-04-14T23:05:29.335Z,993.20
2018-04-14T23:07:22.113Z,993.19
2018-04-14T23:08:21.994Z,993.17
2018-04-14T23:10:19.762Z,993.14
2018-04-14T23:11:19.641Z,993.15
2018-04-14T23:13:12.504Z,993.14
2018-04-14T23:14:12.389Z,993.15
2018-04-14T23:16:05.136Z,993.12
2018-04-14T23:17:05.048Z,993.10
2018-04-14T23:18:57.892Z,993.04
2018-04-14T23:19:57.789Z,993.04
2018-04-14T23:21:50.541Z,993.02
2018-04-14T23:22:50.431Z,992.98
2018-04-14T23:24:43.317Z,992.99
2018-04-14T23:25:43.177Z,993.02
2018-04-14T23:27:35.935Z,992.92
2018-04-14T23:28:35.869Z,992.90
2018-04-14T23:30:28.714Z,992.87
2018-04-14T23:31:28.583Z,992.84
2018-04-14T23:33:21.437Z,992.83
2018-04-14T23:34:21.339Z,992.84
2018-04-14T23:36:14.598Z,992.83
2018-04-14T23:37:14.487Z,992.84
2018-04-14T23:39:07.263Z,992.82
2018-04-14T23:40:07.134Z,992.81
2018-04-14T23:41:59.923Z,992.88
2018-04-14T23:42:59.794Z,992.87
2018-04-14T23:44:53.053Z,992.86
2018-04-14T23:45:52.944Z,992.86
2018-04-14T23:47:45.714Z,992.84
2018-04-14T23:48:45.603Z,992.86
2018-04-14T23:50:38.345Z,992.85
2018-04-14T23:51:38.255Z,992.81
2018-04-14T23:53:31.092Z,992.80
2018-04-14T23:54:30.984Z,992.83
2018-04-14T23:56:23.841Z,992.75
2018-04-14T23:57:23.736Z,992.70
2018-04-14T23:59:16.595Z,992.68
